createdAt,value
2023-02-23T00:00:19.594Z,8.02
2023-02-23T00:03:05.483Z,8.07
2023-02-23T00:05:50.829Z,8.19
2023-02-23T00:08:37.135Z,8.30
2023-02-23T00:11:23.477Z,8.35
2023-02-23T00:14:08.912Z,8.47
2023-02-23T00:16:55.675Z,8.47
2023-02-23T00:19:40.816Z,8.49
2023-02-23T00:22:25.886Z,8.47
2023-02-23T00:25:11.520Z,8.68
2023-02-23T00:27:56.477Z,8.61
2023-02-23T00:30:41.522Z,8.61
2023-02-23T00:33:26.388Z,8.44
2023-02-23T00:36:13.808Z,8.31
2023-02-23T00:39:00.798Z,8.21
2023-02-23T00:41:46.253Z,8.20
2023-02-23T00:44:31.506Z,8.21
2023-02-23T00:47:17.899Z,8.32
2023-02-23T00:50:03.310Z,8.46
2023-02-23T00:52:48.203Z,8.35
2023-02-23T00:55:33.086Z,8.49
2023-02-23T00:58:18.034Z,8.47
2023-02-23T01:01:07.648Z,8.34
2023-02-23T01:03:53.276Z,8.35
2023-02-23T01:06:39.799Z,8.35
2023-02-23T01:09:28.074Z,8.26
2023-02-23T01:12:13.161Z,8.26
2023-02-23T01:14:58.694Z,8.36
2023-02-23T01:17:49.971Z,8.44
2023-02-23T01:20:36.290Z,8.41
2023-02-23T01:23:21.503Z,8.33
2023-02-23T01:26:06.319Z,8.30
2023-02-23T01:28:57.511Z,8.18
2023-02-23T01:31:46.214Z,8.12
2023-02-23T01:34:31.226Z,8.10
2023-02-23T01:37:16.143Z,8.39
2023-02-23T01:40:01.723Z,8.52
2023-02-23T01:42:46.828Z,8.38
2023-02-23T01:45:36.090Z,8.39
2023-02-23T01:48:24.388Z,8.32
2023-02-23T01:51:13.578Z,8.38
2023-02-23T01:54:06.897Z,8.41
2023-02-23T01:56:54.903Z,8.55
2023-02-23T01:59:52.765Z,8.44
2023-02-23T02:02:37.854Z,8.41
2023-02-23T02:05:23.730Z,8.35
2023-02-23T02:08:10.388Z,8.39
2023-02-23T02:10:56.094Z,8.47
2023-02-23T02:13:40.999Z,8.52
2023-02-23T02:16:34.172Z,8.47
2023-02-23T02:19:56.295Z,8.36
2023-02-23T02:22:58.956Z,8.33
2023-02-23T02:25:47.041Z,8.48
2023-02-23T02:28:57.391Z,8.65
2023-02-23T02:32:03.934Z,8.66
2023-02-23T02:35:04.543Z,8.62
2023-02-23T02:37:52.856Z,8.53
2023-02-23T02:40:42.820Z,8.52
2023-02-23T02:43:42.974Z,8.59
2023-02-23T02:46:37.926Z,8.58
2023-02-23T02:49:31.421Z,8.68
2023-02-23T02:52:43.019Z,8.52
2023-02-23T02:55:32.043Z,8.44
2023-02-23T02:58:18.326Z,8.41
2023-02-23T03:01:12.060Z,8.46
2023-02-23T03:03:58.688Z,8.57
2023-02-23T03:07:00.105Z,8.59
2023-02-23T03:10:02.034Z,8.63
2023-02-23T03:13:35.335Z,8.57
2023-02-23T03:16:30.836Z,8.50
2023-02-23T03:19:27.918Z,8.47
2023-02-23T03:22:22.025Z,8.46
2023-02-23T03:25:19.938Z,8.46
2023-02-23T03:28:21.774Z,8.51
2023-02-23T03:31:10.008Z,8.48
2023-02-23T03:33:59.715Z,8.50
2023-02-23T03:36:51.689Z,8.57
2023-02-23T03:39:50.662Z,8.41
2023-02-23T03:42:37.981Z,8.32
2023-02-23T03:45:26.332Z,8.40
2023-02-23T03:48:13.561Z,8.45
2023-02-23T03:51:05.368Z,8.45
2023-02-23T03:54:05.988Z,8.47
2023-02-23T03:56:55.939Z,8.48
2023-02-23T03:59:53.585Z,8.52
2023-02-23T04:02:41.774Z,8.52
2023-02-23T04:05:29.595Z,8.50
2023-02-23T04:08:19.472Z,8.47
2023-02-23T04:11:19.905Z,8.43
2023-02-23T04:14:14.584Z,8.45
2023-02-23T04:17:02.404Z,8.46
2023-02-23T04:19:52.800Z,8.38
2023-02-23T04:22:38.099Z,8.36
2023-02-23T04:25:23.107Z,8.35
2023-02-23T04:28:08.420Z,8.40
2023-02-23T04:30:54.296Z,8.44
2023-02-23T04:33:39.494Z,8.41
2023-02-23T04:36:24.491Z,8.43
2023-02-23T04:39:09.431Z,8.43
2023-02-23T04:41:54.808Z,8.42
2023-02-23T04:44:39.925Z,8.40
2023-02-23T04:47:25.005Z,8.42
2023-02-23T04:50:11.494Z,8.47
2023-02-23T04:52:56.714Z,8.45
2023-02-23T04:55:42.273Z,8.49
2023-02-23T04:58:27.504Z,8.39
2023-02-23T05:01:12.733Z,8.38
2023-02-23T05:03:58.852Z,8.40
2023-02-23T05:06:44.181Z,8.36
2023-02-23T05:09:30.430Z,8.33
2023-02-23T05:12:15.637Z,8.29
2023-02-23T05:15:00.999Z,8.26
2023-02-23T05:17:45.908Z,8.27
2023-02-23T05:20:31.451Z,8.30
2023-02-23T05:23:16.943Z,8.32
2023-02-23T05:26:04.734Z,8.31
2023-02-23T05:28:49.601Z,8.26
2023-02-23T05:31:34.794Z,8.14
2023-02-23T05:34:19.946Z,8.17
2023-02-23T05:37:05.362Z,8.16
2023-02-23T05:39:50.614Z,8.11
2023-02-23T05:42:35.459Z,8.14
2023-02-23T05:45:20.771Z,8.15
2023-02-23T05:48:06.469Z,8.14
2023-02-23T05:50:51.901Z,8.17
2023-02-23T05:53:37.944Z,8.25
2023-02-23T05:56:25.841Z,8.06
2023-02-23T05:59:11.029Z,8.06
2023-02-23T06:01:56.244Z,7.98
2023-02-23T06:04:41.621Z,8.06
2023-02-23T06:07:26.778Z,8.14
2023-02-23T06:10:12.312Z,8.12
2023-02-23T06:12:57.571Z,8.11
2023-02-23T06:15:44.466Z,8.08
2023-02-23T06:18:29.983Z,8.16
2023-02-23T06:21:15.435Z,8.14
2023-02-23T06:24:00.845Z,8.19
2023-02-23T06:26:47.592Z,8.13
2023-02-23T06:29:33.305Z,8.17
2023-02-23T06:32:18.665Z,8.22
2023-02-23T06:35:05.478Z,8.23
2023-02-23T06:37:50.471Z,8.22
2023-02-23T06:40:53.905Z,8.35
2023-02-23T06:43:39.049Z,8.28
2023-02-23T06:46:24.930Z,8.26
2023-02-23T06:49:11.749Z,8.25
2023-02-23T06:51:56.886Z,8.29
2023-02-23T06:54:42.505Z,8.30
2023-02-23T06:57:27.701Z,8.34
2023-02-23T07:00:13.661Z,8.34
2023-02-23T07:02:58.935Z,8.34
2023-02-23T07:05:44.857Z,8.35
2023-02-23T07:08:30.220Z,8.37
2023-02-23T07:11:15.862Z,8.34
2023-02-23T07:14:01.742Z,8.38
2023-02-23T07:16:47.475Z,8.40
2023-02-23T07:19:32.843Z,8.39
2023-02-23T07:22:17.929Z,8.41
2023-02-23T07:25:03.381Z,8.38
2023-02-23T07:27:48.823Z,8.42
2023-02-23T07:30:33.941Z,8.36
2023-02-23T07:33:18.942Z,8.40
2023-02-23T07:36:04.491Z,8.36
2023-02-23T07:38:50.210Z,8.47
2023-02-23T07:41:35.698Z,8.49
2023-02-23T07:44:23.932Z,8.49
2023-02-23T07:47:13.367Z,8.46
2023-02-23T07:49:59.778Z,8.41
2023-02-23T07:52:44.986Z,8.40
2023-02-23T07:55:30.492Z,8.43
2023-02-23T07:58:18.098Z,8.49
2023-02-23T08:01:04.451Z,8.55
2023-02-23T08:03:49.672Z,8.53
2023-02-23T08:06:35.219Z,8.55
2023-02-23T08:09:20.898Z,8.52
2023-02-23T08:12:06.584Z,8.48
2023-02-23T08:14:57.205Z,8.51
2023-02-23T08:17:42.194Z,8.48
2023-02-23T08:20:27.346Z,8.44
2023-02-23T08:23:19.198Z,8.45
2023-02-23T08:26:04.676Z,8.41
2023-02-23T08:28:53.036Z,8.45
2023-02-23T08:31:38.216Z,8.50
2023-02-23T08:34:23.376Z,8.55
2023-02-23T08:37:08.986Z,8.54
2023-02-23T08:39:54.305Z,8.61
2023-02-23T08:42:40.373Z,8.67
2023-02-23T08:45:25.807Z,8.66
2023-02-23T08:48:11.054Z,8.71
2023-02-23T08:50:57.886Z,8.69
2023-02-23T08:53:43.252Z,8.64
2023-02-23T08:56:28.406Z,8.69
2023-02-23T08:59:14.628Z,8.67
2023-02-23T09:01:59.489Z,8.63
2023-02-23T09:05:03.485Z,8.62
2023-02-23T09:07:56.379Z,8.67
2023-02-23T09:10:41.757Z,8.65
2023-02-23T09:13:27.470Z,8.66
2023-02-23T09:16:12.700Z,8.68
2023-02-23T09:18:57.993Z,8.68
2023-02-23T09:21:43.981Z,8.74
2023-02-23T09:24:29.088Z,8.75
2023-02-23T09:27:14.580Z,8.71
2023-02-23T09:29:59.979Z,8.74
2023-02-23T09:32:45.413Z,8.82
2023-02-23T09:35:30.506Z,8.78
2023-02-23T09:38:16.068Z,8.73
2023-02-23T09:41:01.152Z,8.74
2023-02-23T09:43:55.892Z,8.70
2023-02-23T09:47:11.666Z,8.81
2023-02-23T09:49:59.874Z,8.85
2023-02-23T09:52:49.691Z,8.93
2023-02-23T09:55:44.489Z,8.95
2023-02-23T09:58:33.158Z,8.90
2023-02-23T10:01:47.803Z,8.97
2023-02-23T10:04:36.187Z,8.75
2023-02-23T10:07:34.570Z,8.94
2023-02-23T10:10:48.244Z,8.94
2023-02-23T10:13:57.617Z,9.00
2023-02-23T10:17:15.473Z,9.05
2023-02-23T10:20:11.244Z,8.98
2023-02-23T10:23:04.628Z,8.94
2023-02-23T10:25:56.235Z,9.00
2023-02-23T10:28:41.569Z,9.00
2023-02-23T10:31:33.143Z,9.01
2023-02-23T10:34:18.956Z,8.98
2023-02-23T10:37:06.840Z,9.04
2023-02-23T10:39:53.103Z,9.11
2023-02-23T10:42:39.069Z,9.00
2023-02-23T10:45:26.228Z,9.03
2023-02-23T10:48:20.730Z,9.05
2023-02-23T10:51:12.805Z,8.95
2023-02-23T10:54:05.000Z,8.63
2023-02-23T10:56:52.910Z,8.76
2023-02-23T10:59:38.124Z,8.63
2023-02-23T11:02:25.933Z,8.63
2023-02-23T11:05:31.736Z,8.59
2023-02-23T11:08:34.426Z,8.66
2023-02-23T11:11:25.278Z,8.80
2023-02-23T11:14:17.003Z,8.90
2023-02-23T11:17:02.154Z,8.87
2023-02-23T11:19:47.465Z,8.97
2023-02-23T11:22:37.202Z,8.95
2023-02-23T11:25:30.738Z,8.83
2023-02-23T11:28:19.088Z,8.90
2023-02-23T11:31:15.524Z,8.87
2023-02-23T11:34:06.133Z,8.91
2023-02-23T11:37:06.882Z,8.65
2023-02-23T11:40:00.916Z,8.58
2023-02-23T11:43:06.410Z,8.73
2023-02-23T11:45:58.331Z,8.78
2023-02-23T11:48:59.110Z,8.88
2023-02-23T11:51:48.917Z,8.78
2023-02-23T11:54:35.529Z,8.78
2023-02-23T11:57:23.192Z,8.71
2023-02-23T12:00:21.383Z,8.70
2023-02-23T12:03:07.809Z,8.90
2023-02-23T12:05:58.177Z,8.86
2023-02-23T12:08:48.106Z,8.84
2023-02-23T12:11:39.444Z,8.68
2023-02-23T12:14:41.177Z,8.85
2023-02-23T12:17:47.166Z,8.87
2023-02-23T12:20:40.762Z,8.91
2023-02-23T12:23:32.504Z,8.82
2023-02-23T12:26:20.983Z,8.73
2023-02-23T12:29:15.979Z,8.84
2023-02-23T12:32:08.925Z,8.88
2023-02-23T12:35:18.863Z,8.90
2023-02-23T12:38:41.725Z,8.97
2023-02-23T12:41:38.868Z,9.02
2023-02-23T12:44:37.426Z,9.11
2023-02-23T12:47:40.869Z,9.05
2023-02-23T12:50:31.425Z,8.82
2023-02-23T12:53:32.873Z,8.97
2023-02-23T12:56:24.306Z,8.52
2023-02-23T12:59:28.621Z,8.73
2023-02-23T13:02:32.696Z,8.81
2023-02-23T13:05:32.128Z,8.90
2023-02-23T13:08:41.917Z,8.72
2023-02-23T13:11:51.510Z,8.69
2023-02-23T13:14:42.880Z,8.76
2023-02-23T13:17:31.322Z,8.77
2023-02-23T13:20:19.661Z,8.79
2023-02-23T13:23:28.455Z,8.81
2023-02-23T13:26:22.226Z,8.81
2023-02-23T13:29:17.014Z,8.80
2023-02-23T13:32:04.674Z,8.85
2023-02-23T13:34:56.208Z,8.68
2023-02-23T13:37:54.607Z,8.63
2023-02-23T13:41:03.546Z,8.70
2023-02-23T13:44:03.573Z,8.66
2023-02-23T13:47:00.043Z,8.52
2023-02-23T13:49:54.687Z,8.68
2023-02-23T13:52:43.222Z,8.73
2023-02-23T13:55:39.994Z,8.72
2023-02-23T13:58:32.693Z,8.50
2023-02-23T14:01:23.061Z,8.51
2023-02-23T14:04:15.768Z,8.42
2023-02-23T14:07:13.812Z,8.37
2023-02-23T14:10:07.207Z,8.19
2023-02-23T14:13:08.016Z,8.23
2023-02-23T14:16:12.588Z,8.24
2023-02-23T14:19:03.939Z,8.28
2023-02-23T14:22:00.759Z,8.27
2023-02-23T14:24:46.392Z,8.19
2023-02-23T14:27:44.168Z,8.22
2023-02-23T14:30:43.626Z,8.25
2023-02-23T14:33:38.142Z,8.18
2023-02-23T14:36:23.557Z,8.11
2023-02-23T14:39:16.939Z,8.16
2023-02-23T14:42:06.777Z,8.00
2023-02-23T14:44:54.170Z,7.94
2023-02-23T14:47:47.147Z,8.03
2023-02-23T14:50:35.345Z,8.00
2023-02-23T14:53:23.459Z,8.02
2023-02-23T14:56:22.142Z,7.98
2023-02-23T14:59:08.587Z,7.89
2023-02-23T15:01:54.896Z,7.62
2023-02-23T15:04:40.143Z,7.60
2023-02-23T15:07:28.128Z,7.58
2023-02-23T15:10:37.466Z,7.58
2023-02-23T15:13:32.057Z,7.37
2023-02-23T15:16:37.058Z,7.40
2023-02-23T15:19:25.056Z,7.46
2023-02-23T15:22:23.065Z,7.50
2023-02-23T15:25:17.658Z,7.55
2023-02-23T15:28:24.592Z,7.57
2023-02-23T15:31:10.397Z,7.60
2023-02-23T15:33:55.656Z,7.63
2023-02-23T15:36:41.547Z,7.63
2023-02-23T15:39:51.559Z,7.71
2023-02-23T15:42:39.697Z,7.64
2023-02-23T15:45:31.161Z,7.67
2023-02-23T15:48:21.026Z,7.63
2023-02-23T15:51:06.146Z,7.66
2023-02-23T15:53:52.069Z,7.57
2023-02-23T15:56:37.326Z,7.40
2023-02-23T15:59:28.486Z,7.49
2023-02-23T16:02:17.263Z,7.49
2023-02-23T16:05:24.008Z,7.52
2023-02-23T16:08:20.114Z,7.54
2023-02-23T16:11:17.127Z,7.51
2023-02-23T16:14:05.701Z,7.49
2023-02-23T16:17:08.379Z,7.55
2023-02-23T16:20:26.796Z,7.49
2023-02-23T16:23:35.433Z,7.49
2023-02-23T16:26:27.391Z,7.53
2023-02-23T16:29:17.599Z,7.46
2023-02-23T16:32:10.661Z,7.51
2023-02-23T16:35:01.018Z,7.52
2023-02-23T16:38:00.940Z,7.47
2023-02-23T16:40:46.267Z,7.36
2023-02-23T16:43:33.583Z,7.41
2023-02-23T16:46:22.799Z,7.43
2023-02-23T16:49:12.241Z,7.41
2023-02-23T16:51:59.510Z,7.39
2023-02-23T16:54:45.040Z,7.45
2023-02-23T16:57:39.137Z,7.42
2023-02-23T17:00:32.706Z,7.41
2023-02-23T17:03:28.040Z,7.41
2023-02-23T17:06:13.650Z,7.41
2023-02-23T17:08:58.947Z,7.44
2023-02-23T17:11:44.091Z,7.40
2023-02-23T17:14:29.589Z,7.44
2023-02-23T17:17:19.394Z,7.41
2023-02-23T17:20:05.421Z,7.47
2023-02-23T17:22:51.169Z,7.40
2023-02-23T17:25:36.747Z,7.38
2023-02-23T17:28:22.117Z,7.37
2023-02-23T17:31:09.072Z,7.33
2023-02-23T17:33:54.609Z,7.36
2023-02-23T17:36:39.879Z,7.40
2023-02-23T17:39:25.406Z,7.38
2023-02-23T17:42:10.610Z,7.38
2023-02-23T17:44:55.980Z,7.42
2023-02-23T17:47:41.283Z,7.38
2023-02-23T17:50:26.848Z,7.38
2023-02-23T17:53:11.876Z,7.35
2023-02-23T17:55:58.384Z,7.39
2023-02-23T17:58:43.679Z,7.40
2023-02-23T18:01:28.957Z,7.39
2023-02-23T18:04:14.462Z,7.37
2023-02-23T18:06:59.602Z,7.39
2023-02-23T18:09:46.105Z,7.45
2023-02-23T18:12:32.408Z,7.45
2023-02-23T18:15:17.540Z,7.27
2023-02-23T18:18:02.852Z,7.14
2023-02-23T18:20:53.448Z,7.18
2023-02-23T18:23:39.607Z,6.94
2023-02-23T18:26:25.278Z,7.06
2023-02-23T18:29:10.764Z,7.05
2023-02-23T18:31:57.279Z,7.11
2023-02-23T18:34:42.353Z,7.16
2023-02-23T18:37:27.557Z,7.18
2023-02-23T18:40:13.127Z,7.21
2023-02-23T18:42:58.848Z,7.26
2023-02-23T18:45:44.377Z,7.16
2023-02-23T18:48:29.514Z,7.14
2023-02-23T18:51:14.795Z,7.28
2023-02-23T18:54:00.305Z,7.27
2023-02-23T18:56:47.199Z,7.31
2023-02-23T18:59:33.409Z,7.28
2023-02-23T19:02:18.739Z,7.31
2023-02-23T19:05:04.492Z,7.34
2023-02-23T19:07:49.597Z,7.23
2023-02-23T19:10:34.899Z,7.26
2023-02-23T19:13:20.407Z,7.06
2023-02-23T19:16:07.103Z,7.07
2023-02-23T19:18:52.321Z,6.97
2023-02-23T19:21:38.138Z,7.09
2023-02-23T19:24:23.469Z,7.02
2023-02-23T19:27:08.381Z,6.85
2023-02-23T19:29:53.752Z,6.78
2023-02-23T19:32:39.342Z,6.92
2023-02-23T19:35:24.493Z,6.70
2023-02-23T19:38:10.619Z,6.62
2023-02-23T19:40:56.001Z,6.71
2023-02-23T19:43:41.527Z,6.70
2023-02-23T19:46:27.287Z,6.71
2023-02-23T19:49:12.179Z,6.73
2023-02-23T19:51:57.749Z,6.86
2023-02-23T19:54:43.205Z,6.86
2023-02-23T19:57:28.259Z,6.93
2023-02-23T20:00:14.235Z,6.90
2023-02-23T20:02:59.188Z,6.92
2023-02-23T20:05:44.160Z,6.82
2023-02-23T20:08:29.644Z,6.86
2023-02-23T20:11:15.209Z,6.94
2023-02-23T20:14:01.078Z,6.97
2023-02-23T20:16:46.333Z,7.03
2023-02-23T20:19:31.978Z,7.05
2023-02-23T20:22:20.609Z,7.10
2023-02-23T20:25:06.026Z,6.67
2023-02-23T20:27:51.273Z,6.20
2023-02-23T20:30:36.709Z,6.21
2023-02-23T20:33:22.326Z,6.06
2023-02-23T20:36:08.036Z,6.15
2023-02-23T20:38:53.160Z,6.09
2023-02-23T20:41:38.637Z,5.99
2023-02-23T20:44:24.380Z,6.11
2023-02-23T20:47:09.618Z,5.95
2023-02-23T20:49:54.775Z,5.74
2023-02-23T20:52:41.570Z,5.62
2023-02-23T20:55:27.549Z,5.51
2023-02-23T20:58:12.960Z,5.61
2023-02-23T21:00:58.436Z,5.64
2023-02-23T21:03:44.145Z,5.62
2023-02-23T21:06:30.829Z,5.63
2023-02-23T21:13:23.334Z,5.54
2023-02-23T21:16:12.397Z,5.56
2023-02-23T21:18:57.951Z,5.56
2023-02-23T21:21:43.076Z,5.49
2023-02-23T21:24:28.550Z,5.50
2023-02-23T21:27:13.797Z,5.51
2023-02-23T21:29:58.954Z,5.48
2023-02-23T21:32:44.133Z,5.59
2023-02-23T21:35:29.455Z,5.56
2023-02-23T21:38:14.380Z,5.62
2023-02-23T21:40:59.264Z,5.66
2023-02-23T21:43:45.305Z,5.65
2023-02-23T21:46:30.431Z,5.56
2023-02-23T21:49:16.594Z,5.54
2023-02-23T21:52:02.696Z,5.54
2023-02-23T21:54:49.915Z,5.60
2023-02-23T21:57:35.350Z,5.54
2023-02-23T22:00:20.761Z,5.55
2023-02-23T22:03:05.959Z,5.52
2023-02-23T22:05:51.249Z,5.43
2023-02-23T22:08:36.271Z,5.40
2023-02-23T22:11:25.222Z,5.35
2023-02-23T22:14:10.460Z,5.44
2023-02-23T22:16:55.676Z,5.56
2023-02-23T22:19:41.035Z,5.64
2023-02-23T22:22:26.367Z,5.49
2023-02-23T22:25:11.900Z,5.44
2023-02-23T22:27:56.923Z,5.54
2023-02-23T22:30:42.373Z,5.52
2023-02-23T22:33:27.336Z,5.55
2023-02-23T22:36:13.983Z,5.65
2023-02-23T22:39:00.274Z,5.47
2023-02-23T22:41:46.689Z,5.58
2023-02-23T22:44:31.952Z,5.57
2023-02-23T22:47:17.257Z,5.56
2023-02-23T22:50:02.909Z,5.58
2023-02-23T22:52:48.150Z,5.51
2023-02-23T22:55:33.868Z,5.36
2023-02-23T22:58:19.217Z,5.43
2023-02-23T23:01:05.215Z,5.37
2023-02-23T23:03:50.509Z,5.23
2023-02-23T23:06:40.708Z,5.18
2023-02-23T23:09:25.819Z,5.07
2023-02-23T23:12:10.817Z,4.98
2023-02-23T23:14:56.542Z,4.95
2023-02-23T23:17:42.888Z,4.98
2023-02-23T23:20:28.143Z,4.89
2023-02-23T23:23:13.486Z,4.79
2023-02-23T23:25:58.834Z,4.83
2023-02-23T23:28:49.869Z,4.98
2023-02-23T23:31:35.855Z,4.89
2023-02-23T23:34:21.084Z,4.96
2023-02-23T23:37:06.702Z,4.92
2023-02-23T23:39:51.933Z,4.88
2023-02-23T23:42:36.838Z,4.99
2023-02-23T23:45:21.779Z,4.91
2023-02-23T23:48:07.062Z,4.84
2023-02-23T23:50:52.438Z,4.87
2023-02-23T23:53:37.532Z,4.83
2023-02-23T23:56:23.282Z,4.85
2023-02-23T23:59:11.703Z,4.83
